Terminal Aerodrome Forecast
Issued by NWS Upton, NY

Home | Current Version | Previous Version | Text Only | Print | Product List | Glossary On
Versions: 1 2 3 4 5 6 7 8 9 10 11 12 13 14 15 16 17 18 19 20 21 22 23 24 25 26 27 28 29 30
000
FTUS41 KOKX 211400 AAA
TAFLGA
TAF AMD
KLGA 211426Z 2114/2212 VRB05KT P6SM BKN060 BKN140
     FM211600 14009KT P6SM BKN040 BKN100
     FM220100 14006KT P6SM SCT020 BKN040 PROB30 2204/2210 -SHRA
      BKN020
     FM221000 11005KT P6SM VCSH BKN020 OVC040=

USA.gov is the U.S. government's official web portal to all federal, state and local government web resources and services.